createdAt,value
2022-12-18T00:02:57.684Z,86.84
2022-12-18T00:06:00.799Z,86.55
2022-12-18T00:09:04.714Z,86.62
2022-12-18T00:15:18.625Z,86.92
2022-12-18T00:18:21.507Z,86.63
2022-12-18T00:21:24.354Z,86.34
2022-12-18T00:24:27.513Z,86.26
2022-12-18T00:27:30.383Z,86.97
2022-12-18T00:30:33.295Z,87.29
2022-12-18T00:33:37.436Z,87.07
2022-12-18T00:36:42.113Z,87.03
2022-12-18T00:39:44.928Z,86.92
2022-12-18T00:42:56.873Z,86.99
2022-12-18T00:45:59.822Z,86.84
2022-12-18T00:49:04.073Z,86.90
2022-12-18T00:52:06.946Z,87.37
2022-12-18T00:55:10.374Z,87.35
2022-12-18T00:58:15.043Z,87.11
2022-12-18T01:01:18.047Z,87.10
2022-12-18T01:04:21.003Z,87.06
2022-12-18T01:07:23.851Z,87.14
2022-12-18T01:10:27.139Z,87.16
2022-12-18T01:13:29.908Z,87.11
2022-12-18T01:16:32.816Z,87.43
2022-12-18T01:19:35.749Z,87.32
2022-12-18T01:22:38.804Z,87.05
2022-12-18T01:25:41.725Z,86.33
2022-12-18T01:28:45.207Z,86.01
2022-12-18T01:31:48.081Z,86.26
2022-12-18T01:34:51.031Z,86.26
2022-12-18T01:37:57.087Z,86.41
2022-12-18T01:41:01.170Z,86.39
2022-12-18T01:44:42.739Z,86.75
2022-12-18T01:47:57.316Z,86.77
2022-12-18T01:51:01.326Z,86.80
2022-12-18T01:54:04.301Z,86.76
2022-12-18T01:57:07.236Z,86.85
2022-12-18T02:00:22.271Z,87.15
2022-12-18T02:03:25.220Z,86.94
2022-12-18T02:06:41.172Z,86.63
2022-12-18T02:09:59.572Z,87.03
2022-12-18T02:13:43.321Z,87.23
2022-12-18T02:16:58.713Z,87.38
2022-12-18T02:20:25.867Z,87.23
2022-12-18T02:23:47.183Z,87.30
2022-12-18T02:26:52.703Z,87.11
2022-12-18T02:29:59.164Z,86.92
2022-12-18T02:33:05.033Z,86.85
2022-12-18T02:36:11.965Z,86.83
2022-12-18T02:39:17.574Z,86.81
2022-12-18T02:42:20.824Z,86.83
2022-12-18T02:45:23.817Z,86.79
2022-12-18T02:48:33.877Z,86.67
2022-12-18T02:52:02.629Z,86.55
2022-12-18T02:55:20.283Z,86.73
2022-12-18T02:58:26.061Z,86.75
2022-12-18T03:01:44.275Z,86.40
2022-12-18T03:05:19.419Z,86.40
2022-12-18T03:08:31.220Z,86.39
2022-12-18T03:11:57.964Z,86.34
2022-12-18T03:15:17.676Z,86.32
2022-12-18T03:18:30.734Z,86.27
2022-12-18T03:21:40.007Z,86.31
2022-12-18T03:24:43.889Z,86.30
2022-12-18T03:27:52.356Z,86.45
2022-12-18T03:31:00.254Z,86.39
2022-12-18T03:34:10.491Z,86.02
2022-12-18T03:37:13.434Z,86.10
2022-12-18T03:40:16.651Z,85.88
2022-12-18T03:43:57.243Z,85.90
2022-12-18T03:47:09.142Z,85.75
2022-12-18T03:50:21.303Z,85.56
2022-12-18T03:53:32.952Z,85.65
2022-12-18T03:56:43.276Z,85.74
2022-12-18T03:59:50.476Z,85.82
2022-12-18T04:02:56.388Z,86.07
2022-12-18T04:06:01.972Z,85.97
2022-12-18T04:09:06.002Z,86.00
2022-12-18T04:12:09.958Z,85.99
2022-12-18T04:15:14.072Z,85.90
2022-12-18T04:18:17.207Z,85.76
2022-12-18T04:21:20.488Z,85.55
2022-12-18T04:24:23.360Z,85.39
2022-12-18T04:27:26.186Z,85.26
2022-12-18T04:30:29.035Z,85.50
2022-12-18T04:33:31.928Z,85.22
2022-12-18T04:36:34.792Z,85.44
2022-12-18T04:39:37.791Z,85.74
2022-12-18T04:42:41.691Z,85.64
2022-12-18T04:45:44.584Z,85.66
2022-12-18T04:48:48.119Z,85.63
2022-12-18T04:51:50.945Z,85.95
2022-12-18T04:54:53.869Z,86.20
2022-12-18T04:57:56.696Z,85.85
2022-12-18T05:00:59.517Z,85.29
2022-12-18T05:04:03.281Z,85.45
2022-12-18T05:07:06.099Z,85.69
2022-12-18T05:10:09.508Z,85.59
2022-12-18T05:13:14.044Z,85.19
2022-12-18T05:16:17.162Z,84.85
2022-12-18T05:19:20.175Z,85.08
2022-12-18T05:22:23.016Z,85.16
2022-12-18T05:25:25.968Z,85.05
2022-12-18T05:28:31.171Z,84.82
2022-12-18T05:31:39.495Z,85.21
2022-12-18T05:34:42.775Z,85.35
2022-12-18T05:37:45.790Z,85.54
2022-12-18T05:40:49.757Z,85.25
2022-12-18T05:43:52.543Z,85.17
2022-12-18T05:46:55.454Z,85.35
2022-12-18T05:49:58.414Z,85.30
2022-12-18T05:53:01.362Z,85.10
2022-12-18T05:56:06.147Z,84.96
2022-12-18T05:59:08.890Z,84.95
2022-12-18T06:02:11.864Z,85.33
2022-12-18T06:05:15.166Z,85.21
2022-12-18T06:08:18.231Z,85.31
2022-12-18T06:11:24.633Z,85.55
2022-12-18T06:14:28.847Z,85.46
2022-12-18T06:17:33.190Z,85.17
2022-12-18T06:20:37.650Z,85.13
2022-12-18T06:23:40.932Z,85.72
2022-12-18T06:26:44.095Z,84.44
2022-12-18T06:29:47.051Z,83.53
2022-12-18T06:32:56.311Z,84.47
2022-12-18T06:36:13.514Z,84.88
2022-12-18T06:39:16.314Z,84.86
2022-12-18T06:42:19.355Z,84.98
2022-12-18T06:45:22.460Z,85.38
2022-12-18T06:48:25.440Z,84.96
2022-12-18T06:51:28.320Z,84.61
2022-12-18T06:54:31.139Z,84.47
2022-12-18T06:57:33.937Z,84.20
2022-12-18T07:00:36.922Z,83.91
2022-12-18T07:03:41.763Z,83.58
2022-12-18T07:06:44.873Z,83.88
2022-12-18T07:09:48.049Z,83.67
2022-12-18T07:12:50.899Z,83.79
2022-12-18T07:15:53.891Z,84.28
2022-12-18T07:18:57.302Z,84.12
2022-12-18T07:22:00.144Z,84.31
2022-12-18T07:25:03.150Z,83.66
2022-12-18T07:28:06.044Z,83.83
2022-12-18T07:31:13.091Z,83.54
2022-12-18T07:34:16.375Z,83.51
2022-12-18T07:37:19.327Z,84.09
2022-12-18T07:40:22.161Z,83.79
2022-12-18T07:43:25.006Z,83.23
2022-12-18T07:46:27.777Z,83.53
2022-12-18T07:49:30.630Z,83.48
2022-12-18T07:52:33.476Z,83.36
2022-12-18T07:55:59.931Z,82.63
2022-12-18T07:59:00.719Z,81.68
2022-12-18T08:02:04.172Z,81.31
2022-12-18T08:05:07.286Z,81.37
2022-12-18T08:08:10.272Z,80.63
2022-12-18T08:11:13.255Z,80.12
2022-12-18T08:14:16.191Z,80.35
2022-12-18T08:17:20.590Z,80.21
2022-12-18T08:20:23.412Z,80.09
2022-12-18T08:23:28.722Z,79.05
2022-12-18T08:26:32.401Z,77.29
2022-12-18T08:29:35.387Z,77.49
2022-12-18T08:32:38.195Z,76.88
2022-12-18T08:35:45.826Z,76.55
2022-12-18T08:38:49.006Z,76.11
2022-12-18T08:42:10.608Z,75.75
2022-12-18T08:45:13.540Z,76.23
2022-12-18T08:48:21.865Z,74.62
2022-12-18T08:51:25.219Z,73.84
2022-12-18T08:54:28.125Z,73.89
2022-12-18T08:57:31.008Z,72.22
2022-12-18T09:00:33.781Z,72.88
2022-12-18T09:03:36.697Z,71.81
2022-12-18T09:06:39.577Z,73.22
2022-12-18T09:09:42.455Z,74.89
2022-12-18T09:12:45.257Z,73.20
2022-12-18T09:15:53.088Z,71.95
2022-12-18T09:19:00.619Z,72.71
2022-12-18T09:22:03.448Z,70.72
2022-12-18T09:25:09.016Z,72.70
2022-12-18T09:28:20.275Z,72.74
2022-12-18T09:31:25.422Z,73.01
2022-12-18T09:34:28.321Z,73.45
2022-12-18T09:37:31.134Z,74.95
2022-12-18T09:40:40.952Z,75.23
2022-12-18T09:43:58.556Z,75.02
2022-12-18T09:47:17.493Z,75.24
2022-12-18T09:50:26.566Z,74.63
2022-12-18T09:53:34.546Z,73.97
2022-12-18T09:56:41.962Z,74.40
2022-12-18T09:59:50.997Z,73.27
2022-12-18T10:03:02.629Z,72.44
2022-12-18T10:06:16.479Z,72.69
2022-12-18T10:09:19.228Z,73.20
2022-12-18T10:12:36.135Z,73.10
2022-12-18T10:15:51.921Z,72.21
2022-12-18T10:19:19.606Z,72.01
2022-12-18T10:22:44.181Z,72.26
2022-12-18T10:25:56.673Z,72.26
2022-12-18T10:29:05.295Z,72.01
2022-12-18T10:32:15.343Z,72.79
2022-12-18T10:35:25.276Z,72.96
2022-12-18T10:38:31.448Z,73.84
2022-12-18T10:41:34.555Z,73.03
2022-12-18T10:44:37.502Z,72.86
2022-12-18T10:47:49.504Z,72.61
2022-12-18T10:54:23.595Z,71.60
2022-12-18T10:57:37.870Z,71.55
2022-12-18T11:00:40.761Z,72.31
2022-12-18T11:03:46.052Z,72.70
2022-12-18T11:07:07.201Z,72.39
2022-12-18T11:10:19.131Z,71.47
2022-12-18T11:13:25.041Z,70.71
2022-12-18T11:16:30.097Z,71.25
2022-12-18T11:19:38.296Z,67.99
2022-12-18T11:22:41.262Z,70.20
2022-12-18T11:25:53.596Z,70.20
2022-12-18T11:29:12.038Z,70.99
2022-12-18T11:32:46.218Z,71.71
2022-12-18T11:35:53.112Z,71.92
2022-12-18T11:38:57.389Z,71.77
2022-12-18T11:42:13.640Z,72.54
2022-12-18T11:45:28.014Z,72.02
2022-12-18T11:48:37.826Z,71.95
2022-12-18T11:51:57.385Z,72.67
2022-12-18T11:55:09.722Z,72.21
2022-12-18T11:58:22.563Z,71.52
2022-12-18T12:01:52.201Z,72.03
2022-12-18T12:05:15.205Z,72.20
2022-12-18T12:08:24.289Z,72.11
2022-12-18T12:11:44.702Z,72.22
2022-12-18T12:15:04.504Z,72.41
2022-12-18T12:18:31.260Z,72.52
2022-12-18T12:21:40.484Z,72.56
2022-12-18T12:24:49.578Z,73.20
2022-12-18T12:28:04.017Z,72.94
2022-12-18T12:31:06.888Z,72.99
2022-12-18T12:34:57.872Z,73.03
2022-12-18T12:38:17.141Z,73.13
2022-12-18T12:41:46.826Z,73.28
2022-12-18T12:44:56.460Z,73.25
2022-12-18T12:48:02.719Z,73.14
2022-12-18T12:51:14.157Z,73.03
2022-12-18T12:54:20.978Z,73.32
2022-12-18T12:57:28.041Z,73.51
2022-12-18T13:00:50.779Z,74.07
2022-12-18T13:03:58.524Z,74.34
2022-12-18T13:07:16.761Z,74.47
2022-12-18T13:10:23.837Z,74.07
2022-12-18T13:13:50.576Z,74.22
2022-12-18T13:17:23.087Z,74.06
2022-12-18T13:20:35.373Z,74.13
2022-12-18T13:23:42.181Z,74.00
2022-12-18T13:26:45.486Z,73.95
2022-12-18T13:29:48.687Z,74.00
2022-12-18T13:33:19.131Z,74.11
2022-12-18T13:36:29.864Z,74.30
2022-12-18T13:39:35.925Z,74.71
2022-12-18T13:43:01.263Z,74.98
2022-12-18T13:46:06.879Z,75.33
2022-12-18T13:49:22.657Z,75.38
2022-12-18T13:52:38.398Z,75.48
2022-12-18T13:55:47.806Z,75.25
2022-12-18T13:59:17.428Z,75.35
2022-12-18T14:02:29.930Z,75.34
2022-12-18T14:05:39.509Z,75.23
2022-12-18T14:08:47.721Z,75.70
2022-12-18T14:11:52.185Z,76.40
2022-12-18T14:14:55.491Z,76.88
2022-12-18T14:18:17.326Z,76.93
2022-12-18T14:21:33.493Z,77.13
2022-12-18T14:24:36.567Z,77.44
2022-12-18T14:27:44.903Z,77.57
2022-12-18T14:30:47.955Z,77.67
2022-12-18T14:33:51.473Z,77.67
2022-12-18T14:36:56.359Z,77.79
2022-12-18T14:40:10.151Z,77.93
2022-12-18T14:43:14.774Z,78.21
2022-12-18T14:46:31.437Z,79.36
2022-12-18T14:49:35.910Z,78.80
2022-12-18T14:52:39.827Z,78.98
2022-12-18T14:55:48.517Z,79.19
2022-12-18T14:58:55.361Z,79.25
2022-12-18T15:01:58.418Z,79.31
2022-12-18T15:05:12.627Z,79.23
2022-12-18T15:08:38.024Z,79.28
2022-12-18T15:11:40.944Z,79.28
2022-12-18T15:14:43.808Z,79.25
2022-12-18T15:17:46.636Z,79.40
2022-12-18T15:20:56.964Z,79.57
2022-12-18T15:23:59.867Z,79.81
2022-12-18T15:27:03.136Z,80.07
2022-12-18T15:30:09.083Z,80.32
2022-12-18T15:33:27.813Z,80.40
2022-12-18T15:36:31.447Z,80.52
2022-12-18T15:39:34.477Z,80.52
2022-12-18T15:42:56.091Z,80.83
2022-12-18T15:45:59.064Z,80.91
2022-12-18T15:49:03.853Z,80.85
2022-12-18T15:52:07.238Z,81.02
2022-12-18T15:55:34.001Z,81.26
2022-12-18T15:58:36.857Z,81.80
2022-12-18T16:01:42.713Z,82.07
2022-12-18T16:04:46.933Z,81.97
2022-12-18T16:07:49.872Z,81.82
2022-12-18T16:10:52.837Z,82.67
2022-12-18T16:13:55.675Z,82.15
2022-12-18T16:17:01.491Z,82.00
2022-12-18T16:20:04.599Z,82.16
2022-12-18T16:23:07.907Z,82.41
2022-12-18T16:26:10.743Z,82.58
2022-12-18T16:29:13.555Z,82.69
2022-12-18T16:32:21.378Z,82.84
2022-12-18T16:35:27.310Z,83.03
2022-12-18T16:38:30.154Z,82.90
2022-12-18T16:41:33.724Z,82.87
2022-12-18T16:44:36.842Z,82.83
2022-12-18T16:47:40.623Z,82.79
2022-12-18T16:50:43.555Z,82.75
2022-12-18T16:53:46.424Z,82.59
2022-12-18T16:56:51.981Z,82.53
2022-12-18T16:59:56.804Z,82.25
2022-12-18T17:03:02.973Z,82.20
2022-12-18T17:06:06.944Z,82.37
2022-12-18T17:09:16.902Z,82.35
2022-12-18T17:12:20.045Z,82.49
2022-12-18T17:15:22.902Z,82.53
2022-12-18T17:18:27.113Z,82.37
2022-12-18T17:21:30.388Z,82.63
2022-12-18T17:24:35.299Z,82.75
2022-12-18T17:27:38.739Z,83.19
2022-12-18T17:30:41.675Z,83.20
2022-12-18T17:33:44.803Z,83.19
2022-12-18T17:36:47.715Z,83.48
2022-12-18T17:39:50.552Z,83.75
2022-12-18T17:42:53.791Z,83.36
2022-12-18T17:45:57.304Z,83.36
2022-12-18T17:49:02.599Z,83.27
2022-12-18T17:52:05.577Z,83.15
2022-12-18T17:55:09.139Z,83.22
2022-12-18T17:58:11.953Z,83.23
2022-12-18T18:01:16.777Z,83.43
2022-12-18T18:04:19.747Z,83.58
2022-12-18T18:07:22.851Z,83.90
2022-12-18T18:10:25.874Z,84.05
2022-12-18T18:13:47.416Z,83.77
2022-12-18T18:16:52.260Z,83.66
2022-12-18T18:19:55.150Z,83.85
2022-12-18T18:22:58.089Z,83.74
2022-12-18T18:26:05.572Z,83.88
2022-12-18T18:29:12.348Z,83.64
2022-12-18T18:32:15.526Z,83.85
2022-12-18T18:35:45.147Z,84.00
2022-12-18T18:38:45.369Z,84.83
2022-12-18T18:41:51.839Z,84.20
2022-12-18T18:44:54.596Z,84.11
2022-12-18T18:47:58.970Z,84.17
2022-12-18T18:51:14.686Z,84.15
2022-12-18T18:54:25.652Z,84.24
2022-12-18T18:57:30.436Z,84.49
2022-12-18T19:00:33.818Z,84.67
2022-12-18T19:03:38.090Z,84.63
2022-12-18T19:06:41.678Z,85.07
2022-12-18T19:09:45.466Z,84.99
2022-12-18T19:13:07.221Z,84.65
2022-12-18T19:16:10.349Z,84.61
2022-12-18T19:19:13.932Z,84.71
2022-12-18T19:22:16.974Z,84.61
2022-12-18T19:25:19.757Z,84.62
2022-12-18T19:28:26.359Z,84.68
2022-12-18T19:31:34.746Z,84.64
2022-12-18T19:34:39.079Z,84.64
2022-12-18T19:37:42.140Z,84.77
2022-12-18T19:40:45.263Z,84.73
2022-12-18T19:43:49.237Z,84.90
2022-12-18T19:46:52.230Z,85.30
2022-12-18T19:49:55.175Z,85.20
2022-12-18T19:52:58.536Z,85.00
2022-12-18T19:56:12.893Z,84.96
2022-12-18T19:59:15.865Z,84.59
2022-12-18T20:02:20.231Z,84.71
2022-12-18T20:05:25.433Z,84.88
2022-12-18T20:08:28.196Z,84.76
2022-12-18T20:11:33.640Z,84.78
2022-12-18T20:14:41.521Z,84.67
2022-12-18T20:17:44.311Z,84.59
2022-12-18T20:20:48.121Z,84.38
2022-12-18T20:23:54.640Z,84.24
2022-12-18T20:26:57.616Z,84.25
2022-12-18T20:30:00.784Z,84.53
2022-12-18T20:33:03.910Z,84.99
2022-12-18T20:36:12.495Z,84.71
2022-12-18T20:39:16.544Z,84.56
2022-12-18T20:42:19.634Z,84.71
2022-12-18T20:45:22.621Z,84.89
2022-12-18T20:48:26.822Z,85.19
2022-12-18T20:51:30.717Z,85.35
2022-12-18T20:54:33.867Z,85.46
2022-12-18T20:57:36.727Z,85.54
2022-12-18T21:00:41.238Z,85.40
2022-12-18T21:03:46.476Z,85.32
2022-12-18T21:06:54.262Z,86.14
2022-12-18T21:10:05.691Z,86.20
2022-12-18T21:13:08.717Z,86.81
2022-12-18T21:16:12.985Z,86.51
2022-12-18T21:19:20.430Z,85.79
2022-12-18T21:22:23.916Z,85.71
2022-12-18T21:25:27.543Z,85.68
2022-12-18T21:28:30.341Z,85.70
2022-12-18T21:31:38.230Z,85.91
2022-12-18T21:34:46.008Z,85.97
2022-12-18T21:37:50.841Z,86.01
2022-12-18T21:40:53.726Z,86.21
2022-12-18T21:44:07.969Z,86.34
2022-12-18T21:47:21.570Z,86.45
2022-12-18T21:50:26.184Z,86.40
2022-12-18T21:53:29.002Z,86.46
2022-12-18T21:57:01.037Z,86.54
2022-12-18T22:00:05.830Z,86.76
2022-12-18T22:03:18.216Z,86.78
2022-12-18T22:06:22.529Z,86.81
2022-12-18T22:09:26.065Z,86.66
2022-12-18T22:12:43.463Z,86.68
2022-12-18T22:15:47.555Z,86.90
2022-12-18T22:18:50.435Z,86.94
2022-12-18T22:21:54.505Z,86.92
2022-12-18T22:24:57.440Z,86.84
2022-12-18T22:28:18.795Z,86.80
2022-12-18T22:31:21.636Z,86.66
2022-12-18T22:34:24.520Z,86.64
2022-12-18T22:37:27.491Z,86.59
2022-12-18T22:40:30.277Z,86.44
2022-12-18T22:43:33.511Z,86.33
2022-12-18T22:46:44.056Z,86.05
2022-12-18T22:49:48.202Z,85.58
2022-12-18T22:52:50.993Z,85.51
2022-12-18T22:56:00.760Z,85.32
2022-12-18T22:59:04.057Z,85.24
2022-12-18T23:02:06.974Z,85.02
2022-12-18T23:05:10.031Z,84.78
2022-12-18T23:08:12.829Z,84.60
2022-12-18T23:11:16.768Z,84.38
2022-12-18T23:14:21.840Z,84.35
2022-12-18T23:17:25.700Z,84.31
2022-12-18T23:20:28.863Z,84.06
2022-12-18T23:23:34.119Z,83.82
2022-12-18T23:26:37.162Z,83.80
2022-12-18T23:29:40.658Z,83.64
2022-12-18T23:32:43.554Z,83.51
2022-12-18T23:35:46.395Z,83.53
2022-12-18T23:38:54.572Z,83.33
2022-12-18T23:41:58.711Z,83.35
2022-12-18T23:45:03.925Z,83.31
2022-12-18T23:48:12.331Z,83.61
2022-12-18T23:51:16.712Z,83.76
2022-12-18T23:54:30.876Z,84.07
2022-12-18T23:57:36.507Z,84.10
